Pelagos — SZSW — position and weather

sailwx.info

Track history (hours):
 
Tides and Currents Weather Stations Pressure Air Temp Water Temp Dewpoint Dewpoint Depression Visibility Wind Speed Wind Dir Waves Ship Positions

Pelagos

Last reported at 2016-Feb-13 13:31 UTC. Time now 2016-Feb-13 23:40 UTC.
Position N 52°07' E 003°37'.

Length 249 m; draft 8.5 m.

Type: Ship. MMSI: 240335000.

Date/timePositionNaut miles runAvg speedWind from/ knotsBaromVisibWave heightAir tempDewpointWater temp
2016-Feb-13 13:31N 52°07' E 003°37'9 9.7
2016-Feb-13 12:33N 52°03' E 003°51'1010.1
2016-Feb-13 11:34N 51°58' E 004°05'1 0.6
2016-Feb-13 10:32N 51°58' E 004°04'0 0.0
2016-Feb-13 09:32N 51°58' E 004°04'0 0.0
2016-Feb-13 08:32N 51°58' E 004°04'0 0.0
2016-Feb-13 07:32N 51°58' E 004°04'0 0.0
2016-Feb-13 06:32N 51°58' E 004°04'0 0.0
2016-Feb-13 05:32N 51°58' E 004°04'0 0.0
2016-Feb-13 04:32N 51°58' E 004°04'0 0.0
2016-Feb-13 03:32N 51°58' E 004°04'0 0.0
2016-Feb-13 02:32N 51°58' E 004°04'0 0.0
2016-Feb-13 01:32N 51°58' E 004°04'0 0.0
2016-Feb-13 00:32N 51°58' E 004°04'0 0.0
2016-Feb-12 23:32N 51°58' E 004°04'0 0.0
2016-Feb-12 22:32N 51°58' E 004°04'0 0.0
2016-Feb-12 21:32N 51°58' E 004°04'0 0.0
2016-Feb-12 20:32N 51°58' E 004°04'0 0.0
2016-Feb-12 19:32N 51°58' E 004°04'0 0.0
2016-Feb-12 18:32N 51°58' E 004°04'0 0.0
2016-Feb-12 17:32N 51°58' E 004°04'0 0.0
2016-Feb-12 16:32N 51°58' E 004°04'0 0.0
2016-Feb-12 15:32N 51°58' E 004°04'0 0.0
2016-Feb-12 14:32N 51°58' E 004°04'0 0.0
2016-Feb-12 13:32N 51°58' E 004°04'0 0.0
2016-Feb-12 12:34N 51°58' E 004°04'0 0.0
2016-Feb-12 11:34N 51°58' E 004°04'0 0.0
2016-Feb-12 10:33N 51°58' E 004°04'0 0.0
2016-Feb-12 09:34N 51°58' E 004°04'0 0.0
2016-Feb-12 08:34N 51°58' E 004°04'0 0.0
2016-Feb-12 07:34N 51°58' E 004°04'0 0.0
2016-Feb-12 06:33N 51°58' E 004°04'0 0.0
2016-Feb-12 05:34N 51°58' E 004°04'0 0.0
2016-Feb-12 04:34N 51°58' E 004°04'0 0.0
2016-Feb-12 03:34N 51°58' E 004°04'0 0.1
2016-Feb-12 02:33N 51°58' E 004°04'3 3.0
2016-Feb-12 01:34N 51°60' E 004°00'1010.4
2016-Feb-12 00:33N 52°02' E 003°44'41610.9
2016-Feb-10 10:25N 57°48' E 010°26'1012.1
2016-Feb-10 09:34N 57°48' E 010°45'1212.3
2016-Feb-10 08:34N 57°40' E 011°03'1312.8
2016-Feb-10 07:33N 57°31' E 011°20'1211.9
2016-Feb-10 06:33N 57°21' E 011°31'1212.2
2016-Feb-10 05:32N 57°09' E 011°39'1212.1
2016-Feb-10 04:31N 56°58' E 011°47'1211.9
2016-Feb-10 03:32N 56°47' E 011°53'1110.9
2016-Feb-10 02:33N 56°37' E 011°45'7610.2
2016-Feb-09 19:08N 55°26' E 010°58'711.5
2016-Feb-09 18:32N 55°20' E 011°02'9 9.3
2016-Feb-09 17:33N 55°10' E 011°02'1111.4
2016-Feb-09 16:33N 54°59' E 010°59'1111.0
2016-Feb-09 15:33N 54°49' E 010°50'1010.1
2016-Feb-09 14:33N 54°39' E 010°51'1312.6
2016-Feb-09 13:33N 54°35' E 011°12'1313.1
2016-Feb-09 12:33N 54°30' E 011°32'1312.7
2016-Feb-09 11:33N 54°27' E 011°53'1111.1
2016-Feb-09 10:33N 54°29' E 012°12'1310.1
2016-Feb-09 09:18N 54°39' E 012°25'4110.8
2016-Feb-09 05:32N 54°57' E 013°28'1010.7
2016-Feb-09 04:33N 55°00' E 013°45'1110.9
2016-Feb-09 03:33N 55°04' E 014°03'1211.6
2016-Feb-09 02:33N 55°13' E 014°16'1211.8
2016-Feb-09 01:33N 55°22' E 014°29'1211.7
2016-Feb-09 00:33N 55°29' E 014°45'1212.1
2016-Feb-08 23:33N 55°35' E 015°04'1212.3
2016-Feb-08 22:33N 55°40' E 015°25'34911.2
2016-Feb-07 15:29N 59°38' E 023°21'1212.1
2016-Feb-07 14:31N 59°41' E 023°44'8412.1
2016-Feb-07 07:32N 60°01' E 026°27'1212.2
2016-Feb-07 06:30N 60°00' E 026°52'1111.6
2016-Feb-07 05:31N 60°03' E 027°14'1212.1
2016-Feb-07 04:33N 60°09' E 027°35'1111.1
2016-Feb-07 03:33N 60°11' E 027°57'1211.9
2016-Feb-07 02:33N 60°07' E 028°20'1111.4
2016-Feb-07 01:33N 60°10' E 028°42'3 3.1
2016-Feb-07 00:33N 60°13' E 028°46'7 5.9
2016-Feb-06 23:25N 60°19' E 028°43'1 0.0
2016-Feb-05 22:22N 60°20' E 028°42'0 0.5
2016-Feb-05 21:23N 60°20' E 028°42'7 7.9
2016-Feb-05 20:31N 60°13' E 028°46'8 8.2
2016-Feb-05 19:33N 60°08' E 028°34'9 9.0
2016-Feb-05 18:33N 60°07' E 028°16'9 8.6
2016-Feb-05 17:33N 60°09' E 027°59'9 8.6
2016-Feb-05 16:33N 60°10' E 027°42'9 8.9
2016-Feb-05 15:33N 60°05' E 027°27'9 8.7
2016-Feb-05 14:34N 60°00' E 027°12'8 8.2
2016-Feb-05 13:33N 59°58' E 026°57'9 8.8
2016-Feb-05 12:33N 59°59' E 026°39'11 9.0
2016-Feb-05 11:19N 59°56' E 026°18'52 9.1
2016-Feb-05 05:33N 59°45' E 024°36'10 9.1
2016-Feb-05 04:24N 59°42' E 024°16'8 9.1
2016-Feb-05 03:33N 59°39' E 024°02'10 9.5
2016-Feb-05 02:33N 59°36' E 023°44'9 9.3
2016-Feb-05 01:33N 59°33' E 023°27'  
Track history (hours):
 
Tides and Currents Weather Stations Pressure Air Temp Water Temp Dewpoint Dewpoint Depression Visibility Wind Speed Wind Dir Waves Ship Positions

Pelagos

Last reported at 2016-Feb-13 13:31 UTC. Time now 2016-Feb-13 23:40 UTC.
Position N 52°07' E 003°37'.

Length 249 m; draft 8.5 m.

Type: Ship. MMSI: 240335000.

Date/timePositionNaut miles runAvg speedWind from/ knotsBaromVisibWave heightAir tempDewpointWater temp
2016-Feb-13 13:31N 52°07' E 003°37'9 9.7
2016-Feb-13 12:33N 52°03' E 003°51'1010.1
2016-Feb-13 11:34N 51°58' E 004°05'1 0.6
2016-Feb-13 10:32N 51°58' E 004°04'0 0.0
2016-Feb-13 09:32N 51°58' E 004°04'0 0.0
2016-Feb-13 08:32N 51°58' E 004°04'0 0.0
2016-Feb-13 07:32N 51°58' E 004°04'0 0.0
2016-Feb-13 06:32N 51°58' E 004°04'0 0.0
2016-Feb-13 05:32N 51°58' E 004°04'0 0.0
2016-Feb-13 04:32N 51°58' E 004°04'0 0.0
2016-Feb-13 03:32N 51°58' E 004°04'0 0.0
2016-Feb-13 02:32N 51°58' E 004°04'0 0.0
2016-Feb-13 01:32N 51°58' E 004°04'0 0.0
2016-Feb-13 00:32N 51°58' E 004°04'0 0.0
2016-Feb-12 23:32N 51°58' E 004°04'0 0.0
2016-Feb-12 22:32N 51°58' E 004°04'0 0.0
2016-Feb-12 21:32N 51°58' E 004°04'0 0.0
2016-Feb-12 20:32N 51°58' E 004°04'0 0.0
2016-Feb-12 19:32N 51°58' E 004°04'0 0.0
2016-Feb-12 18:32N 51°58' E 004°04'0 0.0
2016-Feb-12 17:32N 51°58' E 004°04'0 0.0
2016-Feb-12 16:32N 51°58' E 004°04'0 0.0
2016-Feb-12 15:32N 51°58' E 004°04'0 0.0
2016-Feb-12 14:32N 51°58' E 004°04'0 0.0
2016-Feb-12 13:32N 51°58' E 004°04'0 0.0
2016-Feb-12 12:34N 51°58' E 004°04'0 0.0
2016-Feb-12 11:34N 51°58' E 004°04'0 0.0
2016-Feb-12 10:33N 51°58' E 004°04'0 0.0
2016-Feb-12 09:34N 51°58' E 004°04'0 0.0
2016-Feb-12 08:34N 51°58' E 004°04'0 0.0
2016-Feb-12 07:34N 51°58' E 004°04'0 0.0
2016-Feb-12 06:33N 51°58' E 004°04'0 0.0
2016-Feb-12 05:34N 51°58' E 004°04'0 0.0
2016-Feb-12 04:34N 51°58' E 004°04'0 0.0
2016-Feb-12 03:34N 51°58' E 004°04'0 0.1
2016-Feb-12 02:33N 51°58' E 004°04'3 3.0
2016-Feb-12 01:34N 51°60' E 004°00'1010.4
2016-Feb-12 00:33N 52°02' E 003°44'41610.9
2016-Feb-10 10:25N 57°48' E 010°26'1012.1
2016-Feb-10 09:34N 57°48' E 010°45'1212.3
2016-Feb-10 08:34N 57°40' E 011°03'1312.8
2016-Feb-10 07:33N 57°31' E 011°20'1211.9
2016-Feb-10 06:33N 57°21' E 011°31'1212.2
2016-Feb-10 05:32N 57°09' E 011°39'1212.1
2016-Feb-10 04:31N 56°58' E 011°47'1211.9
2016-Feb-10 03:32N 56°47' E 011°53'1110.9
2016-Feb-10 02:33N 56°37' E 011°45'7610.2
2016-Feb-09 19:08N 55°26' E 010°58'711.5
2016-Feb-09 18:32N 55°20' E 011°02'9 9.3
2016-Feb-09 17:33N 55°10' E 011°02'1111.4
2016-Feb-09 16:33N 54°59' E 010°59'1111.0
2016-Feb-09 15:33N 54°49' E 010°50'1010.1
2016-Feb-09 14:33N 54°39' E 010°51'1312.6
2016-Feb-09 13:33N 54°35' E 011°12'1313.1
2016-Feb-09 12:33N 54°30' E 011°32'1312.7
2016-Feb-09 11:33N 54°27' E 011°53'1111.1
2016-Feb-09 10:33N 54°29' E 012°12'1310.1
2016-Feb-09 09:18N 54°39' E 012°25'4110.8
2016-Feb-09 05:32N 54°57' E 013°28'1010.7
2016-Feb-09 04:33N 55°00' E 013°45'1110.9
2016-Feb-09 03:33N 55°04' E 014°03'1211.6
2016-Feb-09 02:33N 55°13' E 014°16'1211.8
2016-Feb-09 01:33N 55°22' E 014°29'1211.7
2016-Feb-09 00:33N 55°29' E 014°45'1212.1
2016-Feb-08 23:33N 55°35' E 015°04'1212.3
2016-Feb-08 22:33N 55°40' E 015°25'34911.2
2016-Feb-07 15:29N 59°38' E 023°21'1212.1
2016-Feb-07 14:31N 59°41' E 023°44'8412.1
2016-Feb-07 07:32N 60°01' E 026°27'1212.2
2016-Feb-07 06:30N 60°00' E 026°52'1111.6
2016-Feb-07 05:31N 60°03' E 027°14'1212.1
2016-Feb-07 04:33N 60°09' E 027°35'1111.1
2016-Feb-07 03:33N 60°11' E 027°57'1211.9
2016-Feb-07 02:33N 60°07' E 028°20'1111.4
2016-Feb-07 01:33N 60°10' E 028°42'3 3.1
2016-Feb-07 00:33N 60°13' E 028°46'7 5.9
2016-Feb-06 23:25N 60°19' E 028°43'1 0.0
2016-Feb-05 22:22N 60°20' E 028°42'0 0.5
2016-Feb-05 21:23N 60°20' E 028°42'7 7.9
2016-Feb-05 20:31N 60°13' E 028°46'8 8.2
2016-Feb-05 19:33N 60°08' E 028°34'9 9.0
2016-Feb-05 18:33N 60°07' E 028°16'9 8.6
2016-Feb-05 17:33N 60°09' E 027°59'9 8.6
2016-Feb-05 16:33N 60°10' E 027°42'9 8.9
2016-Feb-05 15:33N 60°05' E 027°27'9 8.7
2016-Feb-05 14:34N 60°00' E 027°12'8 8.2
2016-Feb-05 13:33N 59°58' E 026°57'9 8.8
2016-Feb-05 12:33N 59°59' E 026°39'11 9.0
2016-Feb-05 11:19N 59°56' E 026°18'52 9.1
2016-Feb-05 05:33N 59°45' E 024°36'10 9.1
2016-Feb-05 04:24N 59°42' E 024°16'8 9.1
2016-Feb-05 03:33N 59°39' E 024°02'10 9.5
2016-Feb-05 02:33N 59°36' E 023°44'9 9.3
2016-Feb-05 01:33N 59°33' E 023°27'  

Dump ship's entire track history